Thomaston, New York
Current Conditions -  °F | °C
As of 7:51 PM on Saturday 20 Dec 2014 (Local Time) from KLGA Reporting Station
Overcast Overcast  
Wind Chill: 26°   Ceiling: 3200
Heat Index: 32°   Visibility: 10mi
Dew Point: 22°   Wind: 7mph
Humidity: 66%   Direction: 30°NNE
Pressure: 30.28"   Gusts: NA
Location:  40.786°N, 73.7291°W
Report Text: KLGA 210051Z 03006KT 10SM OVC032 00/M06 A3028 RMK AO2 SLP254 T00001056
Loading
Personal Weather Stations






























Interactive Weather Map New forecast layout! Learn more

10-Day Weather Forecast

Advertisements
Track Severe Weather on mobile